Time;durP1;ratioP1;P1;durP2;ratioP2;P2;SDS_P1;SDS_P2;PMS_P1;PMS_P2;Temp;Humidity;BMP_temperature;BMP_pressure;BME280_temperature;BME280_humidity;BME280_pressure;Samples;Min_cycle;Max_cycle;Signal;HPM_P1;HPM_P2
2022/10/10 00:01:22;;;;;;;6.97;3.70;;;;;;;14.77;46.17;101365.22;5052757;28;20532;-71
2022/10/10 00:03:53;;;;;;;4.75;3.88;;;;;;;14.73;46.24;101369.16;5053419;28;20495;-70
2022/10/10 00:06:20;;;;;;;6.45;4.05;;;;;;;14.71;46.43;101368.41;5051441;28;20029;-70
2022/10/10 00:08:47;;;;;;;5.45;3.75;;;;;;;14.70;46.13;101366.69;5051493;28;20491;-70
2022/10/10 00:11:15;;;;;;;6.47;4.18;;;;;;;14.68;46.37;101365.97;5052842;28;20041;-71
2022/10/10 00:13:43;;;;;;;5.05;3.95;;;;;;;14.63;46.21;101356.38;5052849;28;20041;-71
2022/10/10 00:16:12;;;;;;;5.32;3.63;;;;;;;14.60;46.36;101356.63;5051987;28;20095;-70
2022/10/10 00:18:40;;;;;;;5.72;3.97;;;;;;;14.57;46.47;101354.16;5051478;28;20094;-70
2022/10/10 00:21:07;;;;;;;7.10;4.35;;;;;;;14.57;46.31;101356.00;5052633;28;20435;-70
2022/10/10 00:23:34;;;;;;;10.45;4.03;;;;;;;14.55;46.58;101357.97;5052333;28;20045;-70
2022/10/10 00:26:02;;;;;;;4.93;3.72;;;;;;;14.54;46.43;101348.13;5052775;28;20295;-70
2022/10/10 00:28:37;;;;;;;4.63;3.92;;;;;;;14.53;46.77;101354.53;5052454;28;20041;-69
2022/10/10 00:31:07;;;;;;;5.00;3.88;;;;;;;14.51;46.48;101351.94;5052303;28;20103;-70
2022/10/10 00:33:35;;;;;;;5.22;3.88;;;;;;;14.49;46.73;101356.63;5051907;28;20045;-70
2022/10/10 00:36:01;;;;;;;4.38;3.85;;;;;;;14.48;46.69;101357.59;5052656;28;20041;-71
2022/10/10 00:38:28;;;;;;;4.55;3.92;;;;;;;14.44;46.72;101353.41;5052696;28;20049;-70
2022/10/10 00:40:55;;;;;;;5.80;3.85;;;;;;;14.41;46.93;101353.63;5052516;28;20041;-70
2022/10/10 00:43:24;;;;;;;6.18;3.90;;;;;;;14.40;46.99;101351.03;5052139;28;20044;-70
2022/10/10 00:45:51;;;;;;;6.10;4.15;;;;;;;14.39;46.88;101341.22;5052354;28;20450;-70
2022/10/10 00:48:28;;;;;;;5.97;4.05;;;;;;;14.38;46.84;101347.59;5052439;28;20561;-70
2022/10/10 00:51:03;;;;;;;6.18;3.75;;;;;;;14.35;46.86;101348.72;5052292;28;20041;-70
2022/10/10 00:53:33;;;;;;;4.95;4.43;;;;;;;14.32;47.03;101344.41;5052176;28;20095;-70
2022/10/10 00:56:01;;;;;;;5.40;3.67;;;;;;;14.30;46.88;101346.38;5050889;27;20095;-70
2022/10/10 00:58:28;;;;;;;5.03;3.90;;;;;;;14.27;46.98;101343.03;5052122;28;20033;-71
2022/10/10 01:00:55;;;;;;;4.68;4.00;;;;;;;14.24;46.99;101343.28;5052086;28;20033;-70
2022/10/10 01:03:22;;;;;;;4.88;3.88;;;;;;;14.23;47.06;101338.88;5051866;28;20555;-70
2022/10/10 01:05:50;;;;;;;5.15;3.75;;;;;;;14.22;47.25;101337.16;5051938;28;20040;-70
2022/10/10 01:08:18;;;;;;;7.50;4.00;;;;;;;14.21;47.43;101332.72;5051760;28;20041;-70
2022/10/10 01:10:57;;;;;;;5.93;4.40;;;;;;;14.19;47.53;101334.69;5051474;28;20095;-70
2022/10/10 01:13:57;;;;;;;8.82;4.20;;;;;;;14.16;47.57;101329.53;5051749;28;20287;-70
2022/10/10 01:16:41;;;;;;;4.20;3.80;;;;;;;14.14;47.56;101328.78;5051398;28;20053;-70
2022/10/10 01:19:20;;;;;;;4.72;4.20;;;;;;;14.12;47.50;101330.72;5052010;28;20047;-70
2022/10/10 01:21:54;;;;;;;6.78;4.50;;;;;;;14.11;47.73;101329.84;5051731;28;20044;-71
2022/10/10 01:24:49;;;;;;;6.20;4.30;;;;;;;14.09;47.45;101323.72;5051384;28;20049;-70
2022/10/10 01:27:31;;;;;;;5.18;3.80;;;;;;;14.09;47.55;101320.16;5051722;28;20446;-71
2022/10/10 01:30:20;;;;;;;6.18;4.18;;;;;;;14.05;47.74;101321.38;5051727;28;20040;-71
2022/10/10 01:33:12;;;;;;;6.13;4.20;;;;;;;14.04;47.57;101319.66;5040800;28;20049;-71
2022/10/10 01:35:54;;;;;;;5.22;3.70;;;;;;;14.04;47.70;101314.25;5051079;28;20106;-71
2022/10/10 01:38:35;;;;;;;5.47;3.97;;;;;;;14.02;47.79;101319.78;5051755;28;20049;-71
2022/10/10 01:41:08;;;;;;;5.40;4.40;;;;;;;14.00;48.07;101311.78;5051360;28;20054;-71
2022/10/10 01:43:36;;;;;;;4.88;3.95;;;;;;;14.02;47.73;101308.09;5051602;28;20629;-70
2022/10/10 01:46:11;;;;;;;5.82;4.20;;;;;;;14.01;47.77;101309.94;5051622;28;20099;-70
2022/10/10 01:48:38;;;;;;;;;;;;;;;13.98;47.92;101299.38;5052063;28;20402;-70
2022/10/10 01:51:35;;;;;;;5.97;3.92;;;;;;;14.01;47.93;101301.84;5050776;28;19920;-71
2022/10/10 01:54:22;;;;;;;4.95;4.32;;;;;;;13.96;47.94;101301.34;5051688;28;20095;-70
2022/10/10 01:57:17;;;;;;;6.28;4.40;;;;;;;13.93;48.02;101297.03;5051484;28;20495;-72
2022/10/10 02:00:03;;;;;;;6.10;4.70;;;;;;;13.92;47.82;101294.47;5051516;28;20041;-73
2022/10/10 02:02:44;;;;;;;5.68;4.45;;;;;;;13.89;47.95;101287.47;5051485;28;20049;-71
2022/10/10 02:05:23;;;;;;;5.70;4.78;;;;;;;13.88;47.79;101292.97;5050995;28;20057;-71
2022/10/10 02:07:52;;;;;;;7.93;4.43;;;;;;;13.86;48.09;101284.16;5050430;28;20049;-72
2022/10/10 02:10:24;;;;;;;5.20;4.10;;;;;;;13.85;48.02;101283.28;5051353;28;20064;-71
2022/10/10 02:12:53;;;;;;;6.43;4.43;;;;;;;13.83;48.43;101278.97;5051346;28;20041;-72
2022/10/10 02:15:23;;;;;;;5.95;4.55;;;;;;;13.82;48.19;101274.56;5051989;28;20239;-72
2022/10/10 02:17:51;;;;;;;7.38;4.50;;;;;;;13.80;48.26;101268.41;5051931;28;20087;-72
2022/10/10 02:20:22;;;;;;;7.57;4.57;;;;;;;13.77;48.26;101269.53;5051796;28;20049;-72
2022/10/10 02:22:50;;;;;;;5.95;4.32;;;;;;;13.74;48.46;101274.28;5051654;28;20037;-71
2022/10/10 02:25:27;;;;;;;6.78;4.47;;;;;;;13.70;48.26;101272.81;5051977;28;20530;-70
2022/10/10 02:28:05;;;;;;;8.73;5.25;;;;;;;13.68;48.51;101262.13;5051919;28;20118;-70
2022/10/10 02:30:39;;;;;;;6.50;4.85;;;;;;;13.64;48.45;101261.50;5050410;28;20056;-70
2022/10/10 02:33:07;;;;;;;5.95;4.63;;;;;;;13.60;48.51;101268.13;5050789;28;20491;-70
2022/10/10 02:35:39;;;;;;;9.55;4.80;;;;;;;13.58;48.67;101267.38;5050594;28;20037;-72
2022/10/10 02:38:08;;;;;;;6.22;4.80;;;;;;;13.54;48.51;101270.44;5045035;28;20037;-71
2022/10/10 02:40:35;;;;;;;5.97;4.65;;;;;;;13.51;48.85;101262.56;5054661;28;20037;-71
2022/10/10 02:43:05;;;;;;;6.15;4.53;;;;;;;13.48;48.85;101270.91;5054874;28;20470;-71
2022/10/10 02:45:39;;;;;;;8.95;4.75;;;;;;;13.47;48.91;101261.09;5054845;28;20453;-71
2022/10/10 02:48:06;;;;;;;10.00;4.78;;;;;;;13.47;48.82;101264.66;5054828;28;20518;-72
2022/10/10 02:50:33;;;;;;;10.45;4.63;;;;;;;13.45;48.85;101261.22;5053096;28;20056;-71
2022/10/10 02:52:59;;;;;;;6.85;5.13;;;;;;;13.41;49.11;101256.16;5054113;28;20045;-71
2022/10/10 02:55:26;;;;;;;7.07;4.75;;;;;;;13.38;49.12;101256.38;5054778;28;20099;-71
2022/10/10 02:57:53;;;;;;;6.18;4.50;;;;;;;13.33;49.05;101252.19;5054468;28;20037;-71
2022/10/10 03:00:19;;;;;;;5.55;4.63;;;;;;;13.31;49.31;101248.75;5052926;28;20044;-71
2022/10/10 03:02:46;;;;;;;6.18;4.63;;;;;;;13.30;49.20;101241.63;5054308;28;20037;-71
2022/10/10 03:05:13;;;;;;;7.38;4.72;;;;;;;13.31;49.31;101237.94;5054568;28;20052;-70
2022/10/10 03:07:39;;;;;;;6.65;4.63;;;;;;;13.29;49.25;101237.22;5052613;28;20045;-70
2022/10/10 03:10:06;;;;;;;8.27;4.30;;;;;;;13.28;49.54;101240.88;5053051;28;20098;-70
2022/10/10 03:12:34;;;;;;;6.70;4.90;;;;;;;13.25;49.38;101233.03;5053409;28;20098;-69
2022/10/10 03:15:01;;;;;;;8.15;4.68;;;;;;;13.23;49.51;101234.13;5054502;28;20041;-71
2022/10/10 03:17:27;;;;;;;6.28;5.00;;;;;;;13.21;49.75;101239.63;5054024;28;20110;-70
2022/10/10 03:19:54;;;;;;;7.53;4.53;;;;;;;13.18;49.64;101237.16;5053644;28;20071;-71
2022/10/10 03:22:20;;;;;;;8.07;4.53;;;;;;;13.17;49.79;101234.59;5053894;28;20049;-71
2022/10/10 03:24:51;;;;;;;8.02;5.00;;;;;;;13.17;49.74;101231.88;5054214;28;20041;-71
2022/10/10 03:27:17;;;;;;;6.90;4.50;;;;;;;13.17;50.07;101230.06;5054136;28;20075;-72
2022/10/10 03:29:44;;;;;;;6.13;4.65;;;;;;;13.17;50.07;101232.75;5054278;28;20112;-71
2022/10/10 03:32:10;;;;;;;7.65;4.70;;;;;;;13.16;49.81;101227.44;5053468;28;20483;-70
2022/10/10 03:34:37;;;;;;;8.20;4.68;;;;;;;13.17;49.86;101234.59;5054198;28;20088;-70
2022/10/10 03:37:03;;;;;;;4.80;4.25;;;;;;;13.16;50.07;101227.44;5054002;28;20453;-70
2022/10/10 03:39:30;;;;;;;6.03;4.43;;;;;;;13.15;49.97;101228.41;5053643;28;20041;-70
2022/10/10 03:41:57;;;;;;;7.53;4.90;;;;;;;13.13;50.24;101233.06;5053879;28;20037;-70
2022/10/10 03:44:25;;;;;;;6.43;4.90;;;;;;;13.09;50.18;101231.56;5053947;28;20045;-70
2022/10/10 03:46:51;;;;;;;10.95;5.35;;;;;;;13.08;50.10;101229.84;5053950;28;20045;-72
2022/10/10 03:49:18;;;;;;;6.90;4.55;;;;;;;13.07;50.28;101225.44;5054010;28;20090;-72
2022/10/10 03:51:44;;;;;;;8.55;5.07;;;;;;;13.04;50.62;101223.84;5053716;28;20445;-71
2022/10/10 03:54:12;;;;;;;7.13;5.35;;;;;;;13.00;50.40;101230.44;5053718;28;20494;-71
2022/10/10 03:56:38;;;;;;;6.20;4.78;;;;;;;12.98;50.58;101222.47;5053586;28;20045;-72
2022/10/10 03:59:05;;;;;;;8.40;5.53;;;;;;;12.99;50.47;101234.09;5051945;28;20446;-72
2022/10/10 04:01:32;;;;;;;5.90;4.60;;;;;;;12.99;50.55;101231.41;5053211;28;20091;-72
2022/10/10 04:04:03;;;;;;;7.22;5.13;;;;;;;12.97;50.92;101230.66;5053657;28;20076;-72
2022/10/10 04:06:30;;;;;;;6.88;4.88;;;;;;;12.96;50.50;101228.94;5053653;28;20045;-72
2022/10/10 04:08:56;;;;;;;6.78;5.07;;;;;;;12.92;50.69;101232.84;5053442;28;20037;-73
2022/10/10 04:11:23;;;;;;;9.40;5.65;;;;;;;12.89;50.80;101233.06;5052977;28;20108;-72
2022/10/10 04:13:54;;;;;;;6.18;4.78;;;;;;;12.86;51.01;101225.22;5053356;28;20044;-72
2022/10/10 04:16:20;;;;;;;8.48;5.10;;;;;;;12.87;51.07;101229.63;5053709;28;20098;-73
2022/10/10 04:18:47;;;;;;;6.22;5.07;;;;;;;12.87;50.98;101232.34;5052164;28;20364;-72
2022/10/10 04:21:14;;;;;;;6.55;5.47;;;;;;;12.86;50.84;101230.59;5052024;28;20041;-72
2022/10/10 04:23:40;;;;;;;6.68;5.22;;;;;;;12.83;50.96;101225.44;5053396;28;20269;-72
2022/10/10 04:26:07;;;;;;;6.80;5.10;;;;;;;12.81;51.24;101225.56;5052053;28;20060;-72
2022/10/10 04:28:34;;;;;;;7.53;5.78;;;;;;;12.81;51.09;101227.41;5053668;28;20553;-71
2022/10/10 04:31:00;;;;;;;6.55;5.20;;;;;;;12.80;51.07;101231.06;5053162;28;20124;-72
2022/10/10 04:33:27;;;;;;;7.10;5.00;;;;;;;12.77;51.18;101226.75;5052773;28;20087;-72
2022/10/10 04:35:53;;;;;;;10.88;5.40;;;;;;;12.75;51.29;101225.16;5051597;28;20056;-72
2022/10/10 04:38:21;;;;;;;8.93;4.88;;;;;;;12.72;51.53;101227.09;5051370;28;20052;-73
2022/10/10 04:40:49;;;;;;;9.10;4.88;;;;;;;12.73;51.49;101222.56;5052919;28;20091;-72
2022/10/10 04:43:17;;;;;;;7.10;5.18;;;;;;;12.74;51.58;101224.28;5052756;28;20159;-72
2022/10/10 04:45:45;;;;;;;8.98;5.95;;;;;;;12.71;51.67;101221.81;5052662;28;20082;-72
2022/10/10 04:48:12;;;;;;;8.55;5.57;;;;;;;12.70;51.40;101222.81;5052768;28;20487;-71
2022/10/10 04:50:39;;;;;;;7.53;5.63;;;;;;;12.68;51.48;101227.44;5052961;28;20103;-72
2022/10/10 04:53:05;;;;;;;7.13;5.15;;;;;;;12.66;51.63;101226.69;5052734;28;20045;-72
2022/10/10 04:55:36;;;;;;;6.78;5.15;;;;;;;12.66;51.83;101226.69;5053106;28;20482;-72
2022/10/10 04:58:03;;;;;;;8.52;5.40;;;;;;;12.66;51.82;101221.31;5052996;28;20037;-73
2022/10/10 05:00:29;;;;;;;7.63;5.63;;;;;;;12.63;51.92;101222.41;5052425;28;20102;-72
2022/10/10 05:02:55;;;;;;;6.68;5.25;;;;;;;12.61;51.56;101220.75;5052408;28;20080;-72
2022/10/10 05:05:27;;;;;;;11.07;6.07;;;;;;;12.58;51.86;101227.22;5053268;28;20098;-71
2022/10/10 05:07:53;;;;;;;8.48;5.55;;;;;;;12.57;51.89;101220.13;5053376;28;20044;-72
2022/10/10 05:10:21;;;;;;;9.23;5.72;;;;;;;12.58;51.94;101220.97;5052838;28;20049;-72
2022/10/10 05:12:48;;;;;;;10.05;5.75;;;;;;;12.58;51.95;101223.69;5052412;28;20094;-73
2022/10/10 05:15:16;;;;;;;7.57;6.03;;;;;;;12.58;52.14;101229.91;5052368;28;20033;-72
2022/10/10 05:17:43;;;;;;;8.23;6.05;;;;;;;12.56;52.08;101221.09;5052073;28;20045;-73
2022/10/10 05:20:10;;;;;;;10.55;5.90;;;;;;;12.55;52.00;101218.50;5052067;28;20375;-72
2022/10/10 05:22:37;;;;;;;8.95;5.65;;;;;;;12.49;51.90;101221.66;5050264;28;20068;-71
2022/10/10 05:25:03;;;;;;;11.35;6.00;;;;;;;12.47;52.31;101220.91;5049443;28;20102;-72
2022/10/10 05:27:30;;;;;;;8.88;6.22;;;;;;;12.47;52.21;101216.38;5050632;28;20091;-71
2022/10/10 05:29:56;;;;;;;8.98;5.53;;;;;;;12.47;52.22;101215.53;5051747;28;20083;-72
2022/10/10 05:32:23;;;;;;;8.10;5.88;;;;;;;12.47;52.42;101216.38;5051886;28;20049;-72
2022/10/10 05:34:51;;;;;;;7.85;6.07;;;;;;;12.48;52.41;101220.78;5052281;28;20049;-71
2022/10/10 05:37:17;;;;;;;8.80;6.40;;;;;;;12.47;52.57;101221.78;5051402;28;20049;-71
2022/10/10 05:39:44;;;;;;;9.48;5.45;;;;;;;12.45;52.67;101212.94;5051939;28;20049;-71
2022/10/10 05:42:12;;;;;;;8.18;5.35;;;;;;;12.46;52.58;101219.19;5051460;28;20040;-72
2022/10/10 05:44:41;;;;;;;9.15;5.78;;;;;;;12.46;52.39;101220.03;5051808;28;20053;-72
2022/10/10 05:47:07;;;;;;;12.65;6.15;;;;;;;12.45;52.68;101223.72;5051777;28;20044;-71
2022/10/10 05:49:34;;;;;;;8.63;5.75;;;;;;;12.45;52.76;101222.84;5052058;28;20438;-71
2022/10/10 05:52:01;;;;;;;9.15;5.55;;;;;;;12.46;52.51;101219.19;5050754;28;20033;-72
2022/10/10 05:54:30;;;;;;;10.98;5.65;;;;;;;12.46;52.60;101222.75;5051801;28;20041;-72
2022/10/10 05:56:57;;;;;;;8.82;5.80;;;;;;;12.44;52.75;101221.13;5051715;28;20045;-72
2022/10/10 05:59:24;;;;;;;10.68;6.10;;;;;;;12.39;52.73;101221.47;5051460;28;20204;-71
2022/10/10 06:01:50;;;;;;;10.13;5.72;;;;;;;12.37;52.78;101213.50;5050986;28;20495;-71
2022/10/10 06:04:22;;;;;;;7.57;5.80;;;;;;;12.35;53.04;101217.28;5051887;28;20047;-72
2022/10/10 06:06:49;;;;;;;9.18;5.55;;;;;;;12.33;53.16;101224.59;5051587;28;20538;-72
2022/10/10 06:09:16;;;;;;;7.10;6.07;;;;;;;12.34;53.24;101218.25;5051081;28;20430;-72
2022/10/10 06:11:42;;;;;;;7.38;5.65;;;;;;;12.34;53.25;101221.81;5051481;28;20099;-72
2022/10/10 06:14:10;;;;;;;8.43;5.93;;;;;;;12.35;53.05;101218.13;5053913;28;20107;-71
2022/10/10 06:16:38;;;;;;;10.65;6.15;;;;;;;12.35;53.20;101222.66;5055704;28;20037;-71
2022/10/10 06:19:05;;;;;;;8.43;5.93;;;;;;;12.34;53.35;101227.19;5054527;28;20351;-71
2022/10/10 06:21:31;;;;;;;9.02;6.00;;;;;;;12.35;53.36;101223.53;5055561;28;20048;-71
2022/10/10 06:24:00;;;;;;;9.93;6.47;;;;;;;12.35;53.38;101228.91;5055036;28;20103;-71
2022/10/10 06:26:26;;;;;;;8.85;5.65;;;;;;;12.35;53.37;101238.81;5055351;28;20091;-71
2022/10/10 06:28:53;;;;;;;9.07;6.10;;;;;;;12.35;53.53;101233.44;5054716;28;20135;-72
2022/10/10 06:31:19;;;;;;;9.07;5.72;;;;;;;12.38;53.46;101241.28;5055110;28;20041;-73
2022/10/10 06:33:52;;;;;;;7.43;5.97;;;;;;;12.41;53.44;101239.25;5055082;28;20453;-71
2022/10/10 06:36:18;;;;;;;7.22;6.38;;;;;;;12.45;53.61;101239.00;5055049;28;20033;-71
2022/10/10 06:38:45;;;;;;;8.43;6.00;;;;;;;12.47;53.78;101237.06;5054791;28;20454;-71
2022/10/10 06:41:12;;;;;;;11.88;5.80;;;;;;;12.48;53.59;101234.25;5055111;28;20041;-71
2022/10/10 06:43:40;;;;;;;8.35;5.85;;;;;;;12.52;53.74;101237.59;5055064;28;20041;-71
2022/10/10 06:46:09;;;;;;;7.68;5.82;;;;;;;12.57;53.87;101247.06;5054374;28;20483;-72
2022/10/10 06:48:36;;;;;;;12.80;6.15;;;;;;;12.60;53.96;101237.91;5055147;28;20087;-72
2022/10/10 06:51:06;;;;;;;9.25;6.00;;;;;;;12.64;54.16;101242.97;5054940;28;20048;-72
2022/10/10 06:53:33;;;;;;;10.25;6.45;;;;;;;12.69;54.16;101245.34;5035265;28;20053;-72
2022/10/10 06:56:00;;;;;;;9.07;6.22;;;;;;;12.74;54.07;101251.25;5035082;28;20042;-72
2022/10/10 06:58:28;;;;;;;12.73;6.38;;;;;;;12.78;54.15;101246.50;5053601;28;20049;-72
2022/10/10 07:00:59;;;;;;;10.25;6.90;;;;;;;12.82;54.33;101246.16;5055195;28;20430;-72
2022/10/10 07:03:27;;;;;;;8.85;5.78;;;;;;;12.87;54.44;101249.38;5034911;28;20033;-75
2022/10/10 07:06:00;;;;;;;13.52;6.38;;;;;;;12.94;54.40;101249.75;5035201;28;20030;-69
2022/10/10 07:08:27;;;;;;;7.18;6.22;;;;;;;13.04;54.63;101253.50;5035227;28;20500;-68
2022/10/10 07:10:54;;;;;;;10.88;6.18;;;;;;;13.15;54.55;101255.38;5050335;28;20048;-69
2022/10/10 07:13:20;;;;;;;9.43;5.75;;;;;;;13.26;54.72;101250.94;5054346;28;20098;-69
2022/10/10 07:15:48;;;;;;;9.10;6.03;;;;;;;13.40;54.72;101243.66;5053775;28;20045;-69
2022/10/10 07:18:17;;;;;;;7.40;6.03;;;;;;;13.56;54.97;101250.44;5052975;28;20091;-69
2022/10/10 07:20:44;;;;;;;7.03;5.50;;;;;;;13.77;54.74;101256.03;5054088;28;20037;-70
2022/10/10 07:23:10;;;;;;;8.43;5.53;;;;;;;13.99;55.14;101255.19;5053599;28;20461;-70
2022/10/10 07:25:39;;;;;;;8.00;5.60;;;;;;;14.21;54.98;101254.38;5053661;28;20045;-69
2022/10/10 07:28:07;;;;;;;9.23;6.10;;;;;;;14.39;54.72;101250.22;5053875;28;20041;-69
2022/10/10 07:30:47;;;;;;;10.80;5.47;;;;;;;14.55;54.59;101252.56;5053814;28;20557;-69
2022/10/10 07:33:14;;;;;;;9.18;6.15;;;;;;;14.70;54.53;101255.84;5053960;28;20368;-69
2022/10/10 07:35:41;;;;;;;8.20;5.65;;;;;;;14.79;54.45;101261.38;5053864;28;20044;-69
2022/10/10 07:38:10;;;;;;;8.80;5.72;;;;;;;14.87;54.43;101267.03;5053985;28;20098;-69
2022/10/10 07:40:39;;;;;;;10.30;5.53;;;;;;;14.97;54.55;101261.72;5053525;28;20091;-69
2022/10/10 07:43:05;;;;;;;9.82;6.10;;;;;;;15.03;54.27;101261.22;5053555;28;20037;-70
2022/10/10 07:45:35;;;;;;;8.10;5.63;;;;;;;15.09;54.29;101265.25;5052484;28;20041;-70
2022/10/10 07:48:02;;;;;;;11.13;5.88;;;;;;;15.16;53.98;101270.03;5053432;28;20041;-69
2022/10/10 07:50:29;;;;;;;7.93;5.85;;;;;;;15.21;54.27;101275.91;5053466;28;20033;-69
2022/10/10 07:52:55;;;;;;;9.98;5.53;;;;;;;15.31;54.15;101275.13;5053228;28;20041;-69
2022/10/10 07:55:22;;;;;;;7.47;5.10;;;;;;;15.42;54.56;101275.94;5053144;28;20053;-70
2022/10/10 07:57:50;;;;;;;11.57;5.78;;;;;;;15.57;54.63;101276.50;5053580;28;20430;-72
2022/10/10 08:00:19;;;;;;;11.80;6.35;;;;;;;15.77;54.92;101273.00;5053924;28;20091;-69
2022/10/10 08:02:45;;;;;;;10.35;5.32;;;;;;;16.00;54.94;101275.56;5054237;28;20053;-69
2022/10/10 08:05:14;;;;;;;8.48;4.85;;;;;;;16.23;54.81;101284.38;5054182;28;20045;-69
2022/10/10 08:07:40;;;;;;;8.50;4.93;;;;;;;16.42;54.57;101290.78;5054339;28;20106;-69
2022/10/10 08:10:08;;;;;;;9.70;5.13;;;;;;;16.61;54.32;101286.44;5053626;28;20119;-69
2022/10/10 08:12:35;;;;;;;7.45;4.97;;;;;;;16.79;54.58;101293.81;5054285;28;20041;-68
2022/10/10 08:15:06;;;;;;;7.15;5.03;;;;;;;16.98;54.25;101286.72;5054353;28;20047;-69
2022/10/10 08:17:32;;;;;;;7.32;5.47;;;;;;;17.15;53.86;101291.50;5053684;28;20057;-69
2022/10/10 08:19:59;;;;;;;8.98;4.82;;;;;;;17.33;53.69;101283.50;5054032;28;20040;-69
2022/10/10 08:22:25;;;;;;;8.88;4.53;;;;;;;17.56;54.01;101290.38;5053967;28;20380;-68
2022/10/10 08:24:54;;;;;;;6.45;4.55;;;;;;;17.78;53.78;101291.97;5053853;28;20499;-69
2022/10/10 08:27:20;;;;;;;7.30;4.10;;;;;;;17.96;53.59;101292.97;5052571;28;20103;-68
2022/10/10 08:29:47;;;;;;;7.40;3.97;;;;;;;18.13;53.12;101291.34;5054112;28;20037;-68
2022/10/10 08:32:17;;;;;;;7.60;4.35;;;;;;;18.27;52.91;101292.75;5051396;28;20091;-70
2022/10/10 08:34:46;;;;;;;7.07;4.20;;;;;;;18.40;52.73;101298.72;5052824;28;20087;-69
2022/10/10 08:37:13;;;;;;;10.82;4.60;;;;;;;18.48;52.19;101293.38;5052458;28;20037;-69
2022/10/10 08:39:39;;;;;;;6.75;3.83;;;;;;;18.59;52.34;101286.91;5053814;28;20106;-69
2022/10/10 08:42:15;;;;;;;6.85;4.13;;;;;;;18.68;51.96;101286.06;5053408;28;20045;-68
2022/10/10 08:44:42;;;;;;;6.75;4.38;;;;;;;18.79;52.15;101288.56;5050883;28;20131;-69
2022/10/10 08:47:09;;;;;;;9.25;4.30;;;;;;;18.91;52.01;101291.94;5052133;28;20048;-69
2022/10/10 08:49:35;;;;;;;9.18;4.40;;;;;;;19.03;51.68;101285.28;5052348;28;20045;-69
2022/10/10 08:52:12;;;;;;;8.27;4.10;;;;;;;19.17;51.29;101292.06;5051854;28;20495;-68
2022/10/10 08:54:41;;;;;;;7.72;3.72;;;;;;;19.33;51.42;101286.81;5032389;28;20099;-68
2022/10/10 08:57:23;;;;;;;8.02;3.85;;;;;;;19.47;51.44;101289.00;5044167;28;20053;-69
2022/10/10 08:59:54;;;;;;;8.27;3.80;;;;;;;19.65;51.16;101289.00;5051707;28;20112;-68
2022/10/10 09:02:34;;;;;;;10.95;4.03;;;;;;;19.74;50.80;101285.34;5051303;28;20513;-68
2022/10/10 09:05:37;;;;;;;6.57;4.00;;;;;;;19.78;50.43;101285.88;5052079;28;20052;-69
2022/10/10 09:08:12;;;;;;;6.75;3.72;;;;;;;19.81;50.13;101289.16;5051697;28;20442;-69
2022/10/10 09:10:55;;;;;;;10.15;4.25;;;;;;;19.84;50.06;101286.09;5052086;28;20090;-69
2022/10/10 09:13:34;;;;;;;7.40;4.60;;;;;;;19.91;50.15;101295.38;5050201;28;20099;-70
2022/10/10 09:16:35;;;;;;;9.35;4.28;;;;;;;19.98;50.06;101295.59;5052184;28;20478;-70
2022/10/10 09:19:34;;;;;;;9.35;4.20;;;;;;;20.11;49.82;101301.50;5044463;28;20835;-70
2022/10/10 09:22:10;;;;;;;11.23;4.40;;;;;;;20.23;49.70;101305.69;5033345;28;20598;-69
2022/10/10 09:24:47;;;;;;;5.90;3.80;;;;;;;20.33;49.68;101297.38;5040701;28;20044;-70
2022/10/10 09:27:21;;;;;;;7.40;4.05;;;;;;;20.43;49.33;101303.59;5051925;28;20071;-69
2022/10/10 09:29:56;;;;;;;7.60;4.00;;;;;;;20.53;49.58;101315.25;5051756;28;20047;-70
2022/10/10 09:32:29;;;;;;;9.18;3.97;;;;;;;20.62;49.42;101316.16;5051149;28;20482;-70
2022/10/10 09:35:04;;;;;;;7.63;4.07;;;;;;;20.67;49.22;101311.06;5051674;28;20056;-70
2022/10/10 09:37:37;;;;;;;7.80;4.07;;;;;;;20.72;48.68;101303.25;5051588;28;20514;-70
2022/10/10 09:40:27;;;;;;;7.13;4.03;;;;;;;20.80;48.90;101311.47;5051425;28;20055;-69
2022/10/10 09:42:55;;;;;;;8.15;4.10;;;;;;;20.85;48.70;101305.53;5051465;28;20048;-69
2022/10/10 09:45:27;;;;;;;8.30;3.92;;;;;;;20.90;48.76;101311.38;5051516;28;20041;-69
2022/10/10 09:47:55;;;;;;;5.70;3.78;;;;;;;20.97;48.60;101309.69;5051415;28;20045;-70
2022/10/10 09:50:22;;;;;;;8.18;4.00;;;;;;;21.02;48.23;101314.66;5051447;28;20047;-70
2022/10/10 09:52:51;;;;;;;5.80;3.97;;;;;;;21.07;48.38;101318.59;5051037;28;20037;-70
2022/10/10 09:55:45;;;;;;;9.50;4.40;;;;;;;21.10;47.95;101326.44;5050916;28;20045;-70
2022/10/10 09:58:34;;;;;;;8.70;4.28;;;;;;;21.16;48.27;101333.13;5050136;28;20049;-70
2022/10/10 10:01:19;;;;;;;8.60;4.43;;;;;;;21.26;48.15;101333.88;5050792;28;20045;-70
2022/10/10 10:04:08;;;;;;;7.30;4.10;;;;;;;21.34;48.20;101331.16;5051091;28;20075;-71
2022/10/10 10:07:24;;;;;;;7.07;3.88;;;;;;;21.43;47.93;101329.31;5051252;28;20048;-70
2022/10/10 10:09:53;;;;;;;8.73;3.80;;;;;;;21.50;47.98;101328.47;5051074;28;20049;-70
2022/10/10 10:12:24;;;;;;;6.38;3.50;;;;;;;21.52;47.85;101331.88;5050272;28;20102;-72
2022/10/10 10:14:59;;;;;;;8.00;3.85;;;;;;;21.58;47.57;101335.84;5050526;28;20056;-71
2022/10/10 10:17:25;;;;;;;;;;;;;;;21.59;47.59;101333.97;5052114;28;20038;-71
2022/10/10 10:19:52;;;;;;;8.57;3.72;;;;;;;21.67;47.45;101331.25;5049885;28;19982;-71
2022/10/10 10:22:24;;;;;;;7.35;3.85;;;;;;;21.68;47.26;101328.34;5051439;28;20558;-70
2022/10/10 10:24:53;;;;;;;8.93;3.50;;;;;;;21.67;47.17;101336.72;5051997;28;20111;-71
2022/10/10 10:27:22;;;;;;;7.15;3.78;;;;;;;21.66;47.19;101332.28;5052115;28;20045;-71
2022/10/10 10:29:52;;;;;;;6.43;3.13;;;;;;;21.64;46.90;101323.38;5051856;28;20045;-71
2022/10/10 10:32:50;;;;;;;8.00;3.63;;;;;;;21.65;47.11;101325.94;5050978;28;20099;-71
2022/10/10 10:35:29;;;;;;;6.30;3.60;;;;;;;21.70;47.13;101333.63;5046009;28;20515;-70
2022/10/10 10:38:26;;;;;;;6.72;3.95;;;;;;;21.69;47.06;101332.78;5050854;28;20241;-71
2022/10/10 10:41:16;;;;;;;7.05;3.83;;;;;;;21.74;47.29;101337.75;5050531;28;20049;-71
2022/10/10 10:44:03;;;;;;;7.93;3.75;;;;;;;21.82;47.33;101343.22;5040165;28;20491;-71
2022/10/10 10:46:37;;;;;;;8.63;4.00;;;;;;;21.86;47.30;101337.25;5051022;28;20037;-71
2022/10/10 10:49:15;;;;;;;8.02;3.40;;;;;;;21.91;47.20;101344.06;5050625;28;20048;-70
2022/10/10 10:51:52;;;;;;;7.30;3.35;;;;;;;21.96;47.03;101333.47;5050242;28;20134;-71
2022/10/10 10:54:49;;;;;;;6.22;2.85;;;;;;;21.99;46.60;101335.88;5050278;28;20048;-71
2022/10/10 10:57:38;;;;;;;8.10;3.33;;;;;;;22.00;46.58;101337.56;5050667;28;20380;-71
2022/10/10 11:00:29;;;;;;;5.63;2.78;;;;;;;22.13;46.69;101333.31;5052379;28;20507;-71
2022/10/10 11:03:51;;;;;;;9.95;3.50;;;;;;;22.37;46.65;101345.28;5053876;28;20450;-71
2022/10/10 11:06:47;;;;;;;7.50;2.92;;;;;;;22.58;46.16;101342.84;5054630;28;20156;-70
2022/10/10 11:09:41;;;;;;;7.30;2.72;;;;;;;22.69;46.07;101349.84;5054768;28;20053;-71
2022/10/10 11:12:53;;;;;;;5.55;2.65;;;;;;;22.78;45.81;101354.25;5054214;28;20049;-71
2022/10/10 11:15:25;;;;;;;4.63;2.60;;;;;;;22.89;45.88;101361.28;5054871;28;20067;-71
2022/10/10 11:18:14;;;;;;;6.72;2.75;;;;;;;22.93;45.50;101365.38;5054540;28;20061;-70
2022/10/10 11:20:46;;;;;;;8.50;2.90;;;;;;;22.98;45.23;101368.44;5054797;28;20154;-71
2022/10/10 11:23:22;;;;;;;8.40;2.95;;;;;;;22.98;44.82;101363.81;5054534;28;20044;-71
2022/10/10 11:26:04;;;;;;;4.63;2.75;;;;;;;23.01;44.79;101368.06;5054131;28;20065;-70
2022/10/10 11:28:45;;;;;;;6.55;3.05;;;;;;;23.03;44.53;101369.59;5054503;28;20572;-71
2022/10/10 11:31:25;;;;;;;5.53;3.20;;;;;;;23.08;44.62;101364.47;5054184;28;20037;-71
2022/10/10 11:34:10;;;;;;;6.38;3.28;;;;;;;23.13;44.46;101375.75;5053533;28;20045;-71
2022/10/10 11:36:40;;;;;;;7.28;2.80;;;;;;;23.19;44.54;101376.06;5054665;28;20102;-71
2022/10/10 11:39:21;;;;;;;6.47;3.10;;;;;;;23.25;44.37;101378.94;5053313;28;20453;-71
2022/10/10 11:41:54;;;;;;;6.25;3.00;;;;;;;23.36;44.16;101375.81;5054178;28;20095;-71
2022/10/10 11:44:41;;;;;;;6.97;3.15;;;;;;;23.50;44.06;101385.16;5054440;28;20592;-72
2022/10/10 11:47:25;;;;;;;6.75;3.50;;;;;;;23.59;43.70;101375.03;5053714;28;20083;-72